Time;durP1;ratioP1;P1;durP2;ratioP2;P2;SDS_P1;SDS_P2;PMS_P1;PMS_P2;Temp;Humidity;BMP_temperature;BMP_pressure;BME280_temperature;BME280_humidity;BME280_pressure;Samples;Min_cycle;Max_cycle;Signal;HPM_P1;HPM_P2
2024/01/12 00:00:28;;;;;;;;;40.00;31.25;;;;;7.36;65.13;101369.44;5121834;27;45328;-69
2024/01/12 00:02:54;;;;;;;;;36.00;32.25;;;;;7.54;65.14;101411.16;5121251;27;45467;-69
2024/01/12 00:05:19;;;;;;;;;35.00;32.75;;;;;7.42;65.30;101378.34;5119981;27;45353;-69
2024/01/12 00:07:45;;;;;;;;;45.50;41.00;;;;;7.29;65.22;101356.88;5121503;27;45471;-69
2024/01/12 00:10:10;;;;;;;;;44.50;38.25;;;;;7.53;65.57;101403.25;5121500;27;45383;-70
2024/01/12 00:12:36;;;;;;;;;36.25;35.25;;;;;7.38;65.57;101387.69;5121374;27;45562;-69
2024/01/12 00:15:05;;;;;;;;;42.75;36.75;;;;;7.49;65.74;101403.91;5121200;27;45338;-70
2024/01/12 00:17:31;;;;;;;;;26.50;23.75;;;;;7.53;65.90;101398.94;5121463;27;45312;-69
2024/01/12 00:19:56;;;;;;;;;41.25;37.25;;;;;7.40;66.00;101375.69;5121535;27;45264;-70
2024/01/12 00:22:22;;;;;;;;;39.25;31.50;;;;;7.52;66.01;101398.84;5121091;27;46000;-69
2024/01/12 00:24:48;;;;;;;;;41.25;36.50;;;;;7.51;65.94;101392.78;5121115;27;45136;-70
2024/01/12 00:27:15;;;;;;;;;47.25;41.00;;;;;7.55;66.06;101392.13;5119759;27;45324;-69
2024/01/12 00:29:41;;;;;;;;;42.00;36.75;;;;;7.40;66.08;101353.97;5121182;27;45175;-69
2024/01/12 00:32:06;;;;;;;;;48.75;40.00;;;;;7.64;65.73;101389.16;5120979;27;45288;-69
2024/01/12 00:34:32;;;;;;;;;40.00;36.75;;;;;7.62;65.77;101396.00;5119739;27;45312;-69
2024/01/12 00:36:59;;;;;;;;;44.00;38.25;;;;;7.62;65.90;101393.38;5120944;27;45541;-69
2024/01/12 00:39:25;;;;;;;;;37.50;33.50;;;;;7.48;65.98;101390.03;5121723;27;45376;-69
2024/01/12 00:41:52;;;;;;;;;43.00;35.00;;;;;7.33;66.17;101365.75;5121408;27;45313;-69
2024/01/12 00:44:18;;;;;;;;;36.25;34.50;;;;;7.40;66.16;101386.09;5121117;27;45360;-69
2024/01/12 00:46:50;;;;;;;;;36.75;34.75;;;;;7.36;66.19;101382.44;5120933;27;45510;-69
2024/01/12 00:49:19;;;;;;;;;41.25;36.50;;;;;7.26;66.42;101377.53;5120964;27;45245;-69
2024/01/12 00:51:45;;;;;;;;;40.00;34.25;;;;;7.07;66.48;101356.50;5120448;27;45248;-69
2024/01/12 00:54:11;;;;;;;;;39.50;33.75;;;;;7.16;66.58;101389.09;5120343;27;45697;-69
2024/01/12 00:56:37;;;;;;;;;39.00;35.75;;;;;7.07;66.60;101385.97;5120855;27;45471;-70
2024/01/12 00:59:03;;;;;;;;;45.00;39.50;;;;;7.07;66.86;101390.28;5120478;27;45496;-69
2024/01/12 01:01:29;;;;;;;;;56.75;44.50;;;;;6.97;66.58;101379.34;5120161;27;45412;-69
2024/01/12 01:03:55;;;;;;;;;51.00;41.75;;;;;7.02;66.95;101383.91;5120186;27;45436;-70
2024/01/12 01:06:20;;;;;;;;;47.00;35.50;;;;;7.01;67.13;101384.72;5120327;27;45412;-70
2024/01/12 01:08:48;;;;;;;;;43.00;39.00;;;;;6.68;67.15;101332.59;5120618;27;45499;-69
2024/01/12 01:11:16;;;;;;;;;43.75;35.50;;;;;6.96;67.13;101387.94;5119890;27;45295;-70
2024/01/12 01:13:42;;;;;;;;;27.50;25.50;;;;;6.95;67.09;101385.25;5120103;27;45332;-69
2024/01/12 01:16:07;;;;;;;;;35.00;30.00;;;;;6.93;66.40;101385.16;5120469;27;45376;-69
2024/01/12 01:18:33;;;;;;;;;34.25;28.75;;;;;6.89;67.06;101377.09;5120092;27;45234;-69
2024/01/12 01:20:59;;;;;;;;;15.50;14.75;;;;;6.68;66.39;101362.03;5119709;27;45663;-69
2024/01/12 01:23:24;;;;;;;;;43.75;36.75;;;;;6.68;67.45;101368.94;5119851;27;45541;-69
2024/01/12 01:25:51;;;;;;;;;40.00;36.50;;;;;6.38;67.08;101324.78;5119999;27;45316;-69
2024/01/12 01:28:16;;;;;;;;;54.75;39.00;;;;;6.59;67.15;101369.31;5120111;27;45298;-69
2024/01/12 01:30:42;;;;;;;;;30.25;26.50;;;;;6.45;67.13;101355.50;5119700;27;45330;-69
2024/01/12 01:33:08;;;;;;;;;32.00;28.00;;;;;6.22;67.12;101333.38;5119973;27;45281;-69
2024/01/12 01:35:34;;;;;;;;;44.00;35.75;;;;;6.37;67.38;101368.03;5119770;27;45287;-72
2024/01/12 01:38:00;;;;;;;;;33.75;31.50;;;;;6.24;67.56;101359.41;5119991;27;45345;-70
2024/01/12 01:40:25;;;;;;;;;38.50;30.50;;;;;6.19;67.20;101361.75;5119446;27;45566;-70
2024/01/12 01:42:51;;;;;;;;;36.00;29.75;;;;;6.15;67.51;101359.75;5119578;27;45683;-70
2024/01/12 01:45:16;;;;;;;;;37.25;31.00;;;;;6.10;67.39;101362.06;5119383;27;45482;-70
2024/01/12 01:47:45;;;;;;;;;35.00;29.25;;;;;6.08;67.37;101357.59;5120041;27;45303;-70
2024/01/12 01:50:13;;;;;;;;;34.75;29.00;;;;;6.03;67.35;101349.53;5119529;27;45296;-70
2024/01/12 01:52:40;;;;;;;;;36.75;29.00;;;;;5.99;67.83;101357.94;5119722;27;45412;-70
2024/01/12 01:55:06;;;;;;;;;27.25;25.00;;;;;5.69;67.59;101317.97;5119617;27;45310;-69
2024/01/12 01:57:34;;;;;;;;;32.50;25.75;;;;;5.86;67.92;101351.03;5119614;27;45448;-71
2024/01/12 02:00:01;;;;;;;;;35.75;30.25;;;;;5.54;67.89;101316.25;5119123;27;46153;-69
2024/01/12 02:02:28;;;;;;;;;32.00;24.00;;;;;5.70;68.07;101354.38;5119255;27;45378;-70
2024/01/12 02:04:54;;;;;;;;;32.00;29.25;;;;;5.36;68.19;101304.72;5119407;27;45255;-70
2024/01/12 02:07:20;;;;;;;;;31.00;29.00;;;;;5.63;68.22;101356.50;5119535;27;45547;-70
2024/01/12 02:09:46;;;;;;;;;28.00;26.25;;;;;5.60;68.30;101366.69;5118873;27;45491;-71
2024/01/12 02:12:12;;;;;;;;;31.25;27.25;;;;;5.47;68.17;101357.22;5119142;27;45475;-69
2024/01/12 02:14:38;;;;;;;;;43.00;36.25;;;;;5.48;67.96;101370.28;5119120;27;45390;-70
2024/01/12 02:17:03;;;;;;;;;31.75;26.25;;;;;5.35;67.66;101368.63;5119212;27;45432;-71
2024/01/12 02:19:29;;;;;;;;;30.00;26.25;;;;;5.35;67.99;101367.69;5119057;27;45358;-70
2024/01/12 02:21:54;;;;;;;;;32.50;29.50;;;;;5.28;67.88;101368.13;5119024;27;45302;-70
2024/01/12 02:24:20;;;;;;;;;36.25;27.25;;;;;5.20;68.35;101370.22;5118945;27;45590;-70
2024/01/12 02:26:46;;;;;;;;;32.00;27.00;;;;;5.17;67.90;101360.56;5119556;27;45901;-70
2024/01/12 02:29:11;;;;;;;;;33.25;30.00;;;;;5.09;68.45;101347.88;5119202;27;45229;-69
2024/01/12 02:31:39;;;;;;;;;28.75;27.00;;;;;5.15;68.75;101363.81;5118781;27;45446;-70
2024/01/12 02:34:05;;;;;;;;;32.00;25.75;;;;;5.14;68.78;101367.22;5118845;27;45526;-70
2024/01/12 02:36:30;;;;;;;;;29.00;26.50;;;;;5.14;68.55;101367.22;5119027;27;45646;-69
2024/01/12 02:38:56;;;;;;;;;32.75;23.75;;;;;5.10;68.44;101360.06;5118465;27;46026;-69
2024/01/12 02:41:21;;;;;;;;;31.25;29.75;;;;;4.97;67.48;101359.25;5118609;27;45347;-69
2024/01/12 02:43:47;;;;;;;;;20.00;18.00;;;;;4.82;67.66;101355.66;5118914;27;45425;-69
2024/01/12 02:46:13;;;;;;;;;20.25;16.25;;;;;4.78;67.86;101358.84;5119124;27;45328;-69
2024/01/12 02:48:39;;;;;;;;;23.75;22.25;;;;;4.69;68.53;101360.81;5118611;27;45347;-69
2024/01/12 02:51:06;;;;;;;;;22.75;18.50;;;;;4.68;68.66;101359.03;5118398;27;45283;-69
2024/01/12 02:53:32;;;;;;;;;22.75;20.50;;;;;4.68;68.79;101352.16;5118610;27;45213;-69
2024/01/12 02:55:58;;;;;;;;;23.00;20.75;;;;;4.64;68.19;101344.97;5118148;27;45432;-69
2024/01/12 02:58:24;;;;;;;;;28.75;26.75;;;;;4.67;68.54;101355.53;5118317;27;46246;-69
2024/01/12 03:00:50;;;;;;;;;25.25;22.25;;;;;4.66;68.58;101361.50;5118543;27;45415;-69
2024/01/12 03:03:16;;;;;;;;;23.50;19.50;;;;;4.63;68.58;101365.56;5118957;27;45401;-69
2024/01/12 03:05:41;;;;;;;;;23.50;20.00;;;;;4.36;68.19;101312.09;5118751;27;45323;-69
2024/01/12 03:08:07;;;;;;;;;24.50;22.75;;;;;4.58;68.19;101353.22;5118194;27;45299;-69
2024/01/12 03:10:32;;;;;;;;;17.75;15.00;;;;;4.58;68.30;101355.81;5118168;27;45423;-69
2024/01/12 03:12:58;;;;;;;;;19.00;17.50;;;;;4.58;68.55;101357.50;5118436;27;45251;-69
2024/01/12 03:15:23;;;;;;;;;22.25;19.25;;;;;4.38;68.52;101325.13;5118665;27;45458;-69
2024/01/12 03:17:49;;;;;;;;;17.25;16.00;;;;;4.55;68.77;101357.28;5118183;27;46035;-69
2024/01/12 03:20:15;;;;;;;;;17.75;16.00;;;;;4.50;68.21;101359.59;5118369;27;45536;-69
2024/01/12 03:22:40;;;;;;;;;17.25;17.25;;;;;4.53;68.77;101371.81;5118132;27;45503;-69
2024/01/12 03:25:06;;;;;;;;;15.00;11.75;;;;;4.52;68.72;101368.34;5118328;27;45493;-69
2024/01/12 03:27:33;;;;;;;;;16.75;14.50;;;;;4.53;68.47;101366.66;5118006;27;45486;-69
2024/01/12 03:29:58;;;;;;;;;15.00;12.50;;;;;4.54;67.98;101369.34;5118069;27;45399;-69
2024/01/12 03:32:24;;;;;;;;;15.75;15.00;;;;;4.45;68.35;101368.72;5116926;27;45591;-69
2024/01/12 03:34:50;;;;;;;;;18.75;15.00;;;;;4.25;67.94;101377.69;5118341;27;45352;-69
2024/01/12 03:37:15;;;;;;;;;22.25;17.75;;;;;3.98;68.07;101354.34;5116659;27;46261;-69
2024/01/12 03:39:41;;;;;;;;;20.50;18.50;;;;;3.86;68.54;101349.97;5117733;27;45432;-69
2024/01/12 03:42:08;;;;;;;;;18.25;15.75;;;;;3.96;68.12;101380.88;5117865;27;45477;-69
2024/01/12 03:44:33;;;;;;;;;19.25;14.00;;;;;3.89;68.92;101376.94;5118152;27;45375;-69
2024/01/12 03:46:59;;;;;;;;;12.50;12.00;;;;;3.86;69.24;101383.59;5117830;27;45424;-69
2024/01/12 03:49:25;;;;;;;;;19.25;16.50;;;;;3.76;69.46;101370.03;5117754;27;45541;-69
2024/01/12 03:51:54;;;;;;;;;18.00;16.50;;;;;3.86;69.78;101379.34;5117568;27;45147;-69
2024/01/12 03:54:23;;;;;;;;;14.50;13.00;;;;;3.88;69.50;101375.19;5118306;27;45494;-69
2024/01/12 03:56:49;;;;;;;;;15.75;14.50;;;;;3.79;69.62;101362.47;5117861;27;45489;-69
2024/01/12 03:59:14;;;;;;;;;15.00;15.00;;;;;3.62;69.58;101316.50;5117624;27;45531;-69
2024/01/12 04:01:44;;;;;;;;;18.00;17.00;;;;;3.90;69.40;101371.00;5117585;27;45430;-69
2024/01/12 04:04:10;;;;;;;;;16.75;14.75;;;;;3.92;69.33;101371.09;5117797;27;45179;-69
2024/01/12 04:06:35;;;;;;;;;19.00;16.25;;;;;3.92;69.56;101366.84;5117505;27;45440;-69
2024/01/12 04:09:01;;;;;;;;;20.75;19.00;;;;;3.93;69.46;101365.16;5120729;27;45285;-69
2024/01/12 04:11:27;;;;;;;;;21.50;20.25;;;;;3.91;69.77;101365.03;5121221;27;45918;-69
2024/01/12 04:13:52;;;;;;;;;20.75;15.25;;;;;3.92;69.24;101365.91;5121301;27;45417;-69
2024/01/12 04:16:19;;;;;;;;;16.25;13.75;;;;;3.93;69.61;101368.63;5121252;27;45872;-69
2024/01/12 04:18:44;;;;;;;;;15.25;12.25;;;;;3.90;69.23;101355.50;5120890;27;45471;-69
2024/01/12 04:21:10;;;;;;;;;14.75;14.50;;;;;3.94;69.09;101360.09;5119458;27;45566;-69
2024/01/12 04:23:38;;;;;;;;;15.00;14.00;;;;;3.95;68.91;101353.22;5120757;27;45572;-69
2024/01/12 04:26:03;;;;;;;;;15.50;13.50;;;;;3.93;68.54;101358.28;5120590;27;45952;-69
2024/01/12 04:28:29;;;;;;;;;10.00;9.00;;;;;3.91;68.62;101351.22;5120520;27;45453;-69
2024/01/12 04:30:55;;;;;;;;;12.25;11.75;;;;;3.92;68.68;101364.25;5118782;27;45477;-68
2024/01/12 04:33:20;;;;;;;;;11.50;8.50;;;;;3.91;68.92;101366.72;5121711;27;45383;-69
2024/01/12 04:35:46;;;;;;;;;12.00;11.00;;;;;3.83;68.88;101363.59;5121452;27;45289;-69
2024/01/12 04:38:11;;;;;;;;;16.50;12.00;;;;;3.82;68.90;101364.41;5120706;27;45384;-69
2024/01/12 04:40:39;;;;;;;;;11.75;10.75;;;;;3.84;68.37;101362.81;5119482;27;45428;-68
2024/01/12 04:43:04;;;;;;;;;14.50;11.75;;;;;3.83;68.25;101363.59;5120943;27;45273;-69
2024/01/12 04:45:30;;;;;;;;;83.67;63.67;;;;;3.68;68.48;101341.84;5120536;27;45367;-69
2024/01/12 04:47:56;;;;;;;;;62.75;49.25;;;;;3.79;69.04;101364.19;5120480;27;45524;-69
2024/01/12 04:50:22;;;;;;;;;16.25;15.50;;;;;3.79;68.90;101362.47;5120702;27;45293;-68
2024/01/12 04:52:50;;;;;;;;;13.00;11.00;;;;;3.78;68.77;101371.03;5120826;27;45408;-69
2024/01/12 04:55:16;;;;;;;;;14.75;11.75;;;;;3.68;69.08;101360.84;5120470;27;45276;-69
2024/01/12 04:57:42;;;;;;;;;12.00;11.00;;;;;3.72;69.18;101386.13;5120375;27;45500;-69
2024/01/12 05:00:08;;;;;;;;;14.75;12.75;;;;;3.65;68.64;101383.88;5119088;27;45390;-69
2024/01/12 05:02:33;;;;;;;;;17.75;14.25;;;;;3.35;69.25;101347.31;5119274;27;46049;-69
2024/01/12 05:04:59;;;;;;;;;11.25;8.75;;;;;3.39;68.99;101353.59;5120193;27;45388;-69
2024/01/12 05:07:25;;;;;;;;;19.75;17.00;;;;;3.60;69.30;101395.56;5119572;27;46192;-73
2024/01/12 05:09:51;;;;;;;;;16.25;15.50;;;;;3.50;69.33;101377.59;5120602;27;45305;-69
2024/01/12 05:12:16;;;;;;;;;17.50;14.75;;;;;3.59;69.49;101404.09;5118743;27;45500;-68
2024/01/12 05:14:42;;;;;;;;;20.75;15.25;;;;;3.51;69.31;101400.97;5119888;27;45498;-69
2024/01/12 05:17:07;;;;;;;;;12.50;11.50;;;;;3.52;69.47;101409.63;5119400;27;45310;-69
2024/01/12 05:19:33;;;;;;;;;14.25;13.00;;;;;3.39;69.16;101397.50;5119162;27;45505;-69
2024/01/12 05:22:00;;;;;;;;;18.50;14.75;;;;;3.47;69.71;101414.47;5119918;27;45326;-68
2024/01/12 05:24:25;;;;;;;;;18.50;16.25;;;;;3.28;69.86;101391.59;5119820;27;45958;-69
2024/01/12 05:26:51;;;;;;;;;15.00;14.75;;;;;2.95;69.69;101328.94;5120043;27;45511;-68
2024/01/12 05:29:16;;;;;;;;;14.50;12.50;;;;;3.49;69.84;101422.31;5119938;27;45427;-69
2024/01/12 05:31:43;;;;;;;;;16.75;13.00;;;;;3.34;69.34;101401.44;5119956;27;45501;-69
2024/01/12 05:34:09;;;;;;;;;13.75;11.50;;;;;3.47;69.50;101416.16;5119745;27;46034;-69
2024/01/12 05:36:35;;;;;;;;;13.50;11.25;;;;;3.49;69.22;101422.31;5118510;27;45465;-68
2024/01/12 05:39:00;;;;;;;;;11.50;10.50;;;;;3.33;68.96;101389.31;5119803;27;45757;-68
2024/01/12 05:41:26;;;;;;;;;15.50;12.00;;;;;3.47;68.81;101423.91;5119889;27;45462;-69
2024/01/12 05:43:51;;;;;;;;;10.25;8.00;;;;;3.11;68.75;101361.94;5119830;27;45372;-69
2024/01/12 05:46:19;;;;;;;;;9.00;9.00;;;;;3.46;68.91;101415.25;5119564;27;45316;-69
2024/01/12 05:48:45;;;;;;;;;12.25;9.25;;;;;3.45;69.33;101428.06;5119824;27;45167;-69
2024/01/12 05:51:14;;;;;;;;;12.00;11.00;;;;;3.44;68.96;101429.72;5119671;27;45470;-69
2024/01/12 05:53:39;;;;;;;;;12.25;12.25;;;;;3.43;69.59;101438.28;5119515;27;45339;-69
2024/01/12 05:56:05;;;;;;;;;11.25;8.25;;;;;3.43;69.00;101442.56;5119412;27;45315;-68
2024/01/12 05:58:31;;;;;;;;;14.25;9.25;;;;;3.26;68.76;101407.72;5119503;27;45502;-69
2024/01/12 06:00:56;;;;;;;;;11.00;9.25;;;;;3.37;69.00;101432.66;5118486;27;45587;-69
2024/01/12 06:03:22;;;;;;;;;7.00;7.00;;;;;3.25;69.20;101417.16;5119577;27;45850;-69
2024/01/12 06:05:48;;;;;;;;;8.75;7.50;;;;;3.36;69.43;101442.09;5119198;27;45409;-68
2024/01/12 06:08:14;;;;;;;;;10.50;8.25;;;;;3.29;69.20;101438.94;5119390;27;45504;-68
2024/01/12 06:10:40;;;;;;;;;9.50;8.25;;;;;3.37;69.06;101440.41;5119371;27;45331;-69
2024/01/12 06:13:06;;;;;;;;;16.00;10.75;;;;;3.21;68.61;101440.97;5119045;27;45372;-69
2024/01/12 06:15:31;;;;;;;;;7.75;7.75;;;;;3.22;69.11;101445.34;5118903;27;45391;-69
2024/01/12 06:17:59;;;;;;;;;4.75;4.00;;;;;3.17;68.66;101455.31;5119513;27;45521;-68
2024/01/12 06:20:25;;;;;;;;;14.75;13.50;;;;;3.13;68.78;101453.31;5119722;27;45479;-69
2024/01/12 06:22:51;;;;;;;;;12.00;11.50;;;;;3.10;69.32;101447.00;5117633;27;46916;-68
2024/01/12 06:25:17;;;;;;;;;12.50;12.50;;;;;3.03;68.91;101452.53;5119246;27;45282;-69
2024/01/12 06:27:43;;;;;;;;;15.50;12.75;;;;;3.03;69.33;101449.94;5119134;27;45263;-68
2024/01/12 06:30:09;;;;;;;;;12.50;12.25;;;;;2.86;69.89;101434.06;5119113;27;45337;-69
2024/01/12 06:32:38;;;;;;;;;15.50;14.75;;;;;2.76;69.64;101409.25;5117791;27;45950;-68
2024/01/12 06:35:04;;;;;;;;;21.25;15.50;;;;;2.87;70.13;101435.88;5118846;27;45531;-68
2024/01/12 06:37:30;;;;;;;;;11.50;8.00;;;;;2.73;70.35;101403.88;5118922;27;45417;-69
2024/01/12 06:39:57;;;;;;;;;14.75;13.25;;;;;2.74;69.59;101404.78;5119382;27;45490;-69
2024/01/12 06:42:23;;;;;;;;;11.75;10.00;;;;;3.03;69.87;101452.53;5118792;27;45274;-69
2024/01/12 06:44:49;;;;;;;;;44.75;40.25;;;;;3.04;69.72;101446.56;5118641;27;45326;-68
2024/01/12 06:47:14;;;;;;;;;25.00;20.00;;;;;3.02;69.43;101443.84;5118760;27;45371;-69
2024/01/12 06:49:43;;;;;;;;;29.75;26.50;;;;;2.92;69.40;101431.94;5118906;27;45450;-68
2024/01/12 06:52:09;;;;;;;;;24.50;20.25;;;;;3.02;69.74;101448.13;5118235;27;45521;-68
2024/01/12 06:54:35;;;;;;;;;22.50;17.25;;;;;3.02;69.94;101446.44;5118650;27;45401;-68
2024/01/12 06:57:00;;;;;;;;;12.25;10.75;;;;;2.83;69.72;101420.94;5118684;27;45451;-69
2024/01/12 06:59:26;;;;;;;;;18.00;18.00;;;;;3.03;69.31;101453.41;5117652;27;45494;-69
2024/01/12 07:01:52;;;;;;;;;19.75;17.75;;;;;2.83;69.29;101409.75;5134392;27;45363;-68
2024/01/12 07:04:17;;;;;;;;;21.00;17.00;;;;;2.79;69.36;101400.88;5118427;27;45313;-68
2024/01/12 07:06:43;;;;;;;;;47.25;43.50;;;;;2.85;69.04;101401.31;5118531;27;45302;-69
2024/01/12 07:09:13;;;;;;;;;43.50;42.75;;;;;3.02;69.64;101438.69;5118581;27;45302;-69
2024/01/12 07:11:42;;;;;;;;;34.50;30.50;;;;;2.93;69.53;101436.34;5134063;27;46386;-68
2024/01/12 07:14:11;;;;;;;;;25.25;23.25;;;;;3.03;69.31;101445.66;5118195;27;45236;-69
2024/01/12 07:16:37;;;;;;;;;22.50;20.75;;;;;2.93;69.78;101427.69;5118269;27;45490;-69
2024/01/12 07:19:03;;;;;;;;;31.50;27.25;;;;;3.04;69.75;101446.56;5117040;27;45490;-69
2024/01/12 07:21:29;;;;;;;;;44.25;40.00;;;;;3.04;69.68;101446.56;5118480;27;45319;-69
2024/01/12 07:23:55;;;;;;;;;44.75;37.75;;;;;3.02;69.81;101442.97;5117953;27;45346;-69
2024/01/12 07:26:21;;;;;;;;;22.50;21.25;;;;;2.98;69.30;101447.91;5116565;27;45558;-69
2024/01/12 07:28:46;;;;;;;;;27.00;24.00;;;;;2.97;69.64;101440.94;5118129;27;45371;-69
2024/01/12 07:31:12;;;;;;;;;18.75;16.75;;;;;2.81;69.27;101411.31;5118189;27;45307;-69
2024/01/12 07:33:38;;;;;;;;;29.00;27.25;;;;;2.96;69.50;101451.13;5117450;27;45310;-72
2024/01/12 07:36:04;;;;;;;;;32.25;27.25;;;;;2.92;69.66;101446.53;5117828;27;45529;-68
2024/01/12 07:38:30;;;;;;;;;26.75;18.00;;;;;2.93;69.67;101446.66;5118407;27;45290;-68
2024/01/12 07:40:56;;;;;;;;;27.25;24.00;;;;;2.96;69.72;101451.13;5117552;27;45475;-69
2024/01/12 07:43:21;;;;;;;;;22.50;20.50;;;;;2.97;69.58;101453.84;5119852;27;45178;-68
2024/01/12 07:45:47;;;;;;;;;24.75;20.50;;;;;3.00;69.63;101450.59;5121356;27;46244;-68
2024/01/12 07:48:12;;;;;;;;;25.25;20.00;;;;;2.98;70.02;101439.25;5121337;27;45436;-69
2024/01/12 07:50:38;;;;;;;;;37.00;29.00;;;;;3.07;69.70;101455.44;5121086;27;45938;-68
2024/01/12 07:53:04;;;;;;;;;21.25;16.75;;;;;3.08;69.60;101444.31;5121194;27;45466;-69
2024/01/12 07:55:30;;;;;;;;;37.50;28.50;;;;;3.01;69.44;101447.25;5121405;27;45446;-69
2024/01/12 07:57:56;;;;;;;;;75.50;58.50;;;;;2.96;69.65;101439.16;5121182;27;45444;-70
2024/01/12 08:00:22;;;;;;;;;27.25;23.75;;;;;2.94;69.30;101434.66;5120984;27;46157;-69
2024/01/12 08:02:49;;;;;;;;;26.25;22.25;;;;;2.99;69.46;101441.94;5120915;27;45458;-69
2024/01/12 08:05:15;;;;;;;;;22.00;19.00;;;;;2.98;69.81;101437.59;5121162;27;45484;-69
2024/01/12 08:07:41;;;;;;;;;26.75;23.00;;;;;3.01;69.90;101444.66;5121256;27;45204;-69
2024/01/12 08:10:08;;;;;;;;;24.25;19.25;;;;;3.06;70.21;101447.56;5120874;27;46030;-69
2024/01/12 08:12:34;;;;;;;;;20.00;17.50;;;;;3.07;70.28;101446.81;5119771;27;45311;-70
2024/01/12 08:14:59;;;;;;;;;18.25;17.50;;;;;3.12;70.27;101451.53;5121273;27;45686;-68
2024/01/12 08:17:25;;;;;;;;;33.00;29.50;;;;;3.19;70.53;101455.44;5121008;27;45546;-68
2024/01/12 08:19:50;;;;;;;;;29.25;26.00;;;;;3.29;69.87;101457.03;5120966;27;45871;-68
2024/01/12 08:22:16;;;;;;;;;30.50;27.00;;;;;3.34;69.96;101451.44;5120982;27;45466;-68
2024/01/12 08:24:42;;;;;;;;;35.25;28.50;;;;;3.39;70.12;101455.22;5120804;27;45409;-68
2024/01/12 08:27:07;;;;;;;;;38.75;35.25;;;;;3.45;69.27;101453.88;5121557;27;45372;-68
2024/01/12 08:29:33;;;;;;;;;67.50;49.50;;;;;3.33;69.37;101443.56;5121604;27;45387;-68
2024/01/12 08:31:59;;;;;;;;;78.67;62.00;;;;;3.46;69.50;101460.84;5121161;27;45329;-68
2024/01/12 08:34:25;;;;;;;;;52.00;44.75;;;;;3.48;69.55;101455.03;5120595;27;45431;-70
2024/01/12 08:36:51;;;;;;;;;102.33;74.67;;;;;3.59;69.11;101460.94;5120605;27;45431;-69
2024/01/12 08:39:17;;;;;;;;;74.50;60.75;;;;;3.66;69.47;101464.88;5120363;27;45432;-69
2024/01/12 08:41:43;;;;;;;;;64.50;51.50;;;;;3.74;69.11;101472.41;5120237;27;45420;-72
2024/01/12 08:44:11;;;;;;;;;39.75;37.75;;;;;3.81;69.27;101458.22;5120637;27;45498;-72
2024/01/12 08:46:37;;;;;;;;;64.00;50.25;;;;;3.86;69.25;101466.31;5120922;27;45542;-70
2024/01/12 08:49:02;;;;;;;;;72.50;55.75;;;;;3.95;69.48;101461.78;5120611;27;45343;-71
2024/01/12 08:51:28;;;;;;;;;69.75;52.75;;;;;3.78;69.32;101420.16;5120178;27;45233;-71
2024/01/12 08:53:54;;;;;;;;;28.50;24.50;;;;;3.97;68.79;101447.28;5118016;27;45445;-71
2024/01/12 08:56:19;;;;;;;;;38.75;35.00;;;;;4.06;68.43;101453.13;5120447;27;45473;-70
2024/01/12 08:58:45;;;;;;;;;29.25;22.00;;;;;4.09;69.08;101462.78;5120137;27;45962;-70
2024/01/12 09:01:13;;;;;;;;;17.25;15.75;;;;;4.11;68.47;101467.25;5120213;27;45484;-70
2024/01/12 09:03:38;;;;;;;;;17.50;15.50;;;;;4.15;68.67;101463.22;5120410;27;45383;-69
2024/01/12 09:06:04;;;;;;;;;18.75;17.50;;;;;4.22;68.56;101468.03;5120897;27;45251;-70
2024/01/12 09:08:30;;;;;;;;;17.25;16.00;;;;;4.14;68.24;101443.31;5119885;27;45923;-69
2024/01/12 09:10:55;;;;;;;;;13.50;12.25;;;;;4.23;68.63;101438.78;5120087;27;45506;-69
2024/01/12 09:13:21;;;;;;;;;19.00;17.50;;;;;4.26;67.72;101441.59;5120187;27;45277;-70
2024/01/12 09:15:47;;;;;;;;;21.75;18.25;;;;;4.34;67.76;101455.94;5120277;27;45545;-69
2024/01/12 09:18:12;;;;;;;;;23.00;21.00;;;;;4.23;68.04;101449.13;5119773;27;46118;-69
2024/01/12 09:20:38;;;;;;;;;12.75;12.00;;;;;4.25;68.09;101468.22;5120179;27;45516;-70
2024/01/12 09:23:05;;;;;;;;;20.50;16.00;;;;;4.13;68.53;101446.69;5120178;27;45490;-69
2024/01/12 09:25:32;;;;;;;;;14.75;13.25;;;;;4.41;68.19;101464.13;5120268;27;45221;-69
2024/01/12 09:27:58;;;;;;;;;30.25;25.00;;;;;4.37;68.36;101463.91;5119673;27;46234;-69
2024/01/12 09:30:24;;;;;;;;;21.75;20.50;;;;;4.47;68.80;101462.84;5119829;27;45521;-69
2024/01/12 09:32:49;;;;;;;;;22.75;19.00;;;;;5.50;70.90;101464.56;5119776;27;45513;-69
2024/01/12 09:35:15;;;;;;;;;38.25;34.75;;;;;6.92;65.10;101448.31;5118594;27;45332;-69
2024/01/12 09:37:41;;;;;;;;;27.00;24.75;;;;;7.99;61.90;101456.94;5119534;27;45561;-68
2024/01/12 09:40:07;;;;;;;;;16.75;15.50;;;;;8.66;60.61;101450.16;5120087;27;45499;-69
2024/01/12 09:42:33;;;;;;;;;24.00;22.75;;;;;9.23;56.41;101453.06;5119705;27;45462;-69
2024/01/12 09:45:02;;;;;;;;;20.00;16.00;;;;;9.83;57.06;101449.84;5119748;27;45456;-68
2024/01/12 09:47:28;;;;;;;;;22.25;19.00;;;;;10.26;55.63;101447.50;5119202;27;46040;-69
2024/01/12 09:49:55;;;;;;;;;16.75;14.00;;;;;10.60;54.69;101446.44;5119044;27;45386;-68
2024/01/12 09:52:20;;;;;;;;;17.00;15.00;;;;;10.83;52.88;101434.41;5118139;27;45533;-69
2024/01/12 09:54:46;;;;;;;;;25.75;22.25;;;;;11.09;52.22;101451.19;5119413;27;45276;-69
2024/01/12 09:57:12;;;;;;;;;28.75;26.75;;;;;10.98;51.57;101414.97;5119154;27;46162;-68
2024/01/12 09:59:38;;;;;;;;;49.50;39.00;;;;;11.05;51.89;101411.78;5118239;27;45517;-69
2024/01/12 10:02:12;;;;;;;;;94.67;77.67;;;;;11.10;50.90;101423.31;5119340;27;45415;-68
2024/01/12 10:04:38;;;;;;;;;29.75;25.50;;;;;11.22;51.35;101451.69;5119617;27;45559;-69
2024/01/12 10:07:04;;;;;;;;;38.00;32.25;;;;;11.18;51.49;101442.84;5118700;27;45451;-69
2024/01/12 10:09:29;;;;;;;;;46.00;37.75;;;;;10.99;50.71;101411.53;5118984;27;45493;-69
2024/01/12 10:11:56;;;;;;;;;28.50;27.00;;;;;11.09;51.08;101445.06;5119125;27;45344;-69
2024/01/12 10:14:23;;;;;;;;;17.00;16.75;;;;;10.97;51.56;101449.78;5119295;27;45384;-69
2024/01/12 10:16:55;;;;;;;;;28.75;26.75;;;;;10.71;51.33;101436.47;5117186;27;46313;-69
2024/01/12 10:19:20;;;;;;;;;15.25;12.75;;;;;10.49;51.63;101412.03;5117388;27;45303;-69
2024/01/12 10:21:46;;;;;;;;;10.00;8.25;;;;;10.73;52.79;101458.34;5118899;27;45492;-69
2024/01/12 10:24:19;;;;;;;;;37.50;32.25;;;;;10.66;52.71;101454.56;5119368;27;45347;-69
2024/01/12 10:26:49;;;;;;;;;75.25;57.75;;;;;10.58;52.21;101455.06;5118652;27;46231;-69
2024/01/12 10:29:15;;;;;;;;;35.00;31.50;;;;;10.43;53.44;101458.78;5118847;27;45526;-69
2024/01/12 10:31:43;;;;;;;;;13.75;11.00;;;;;10.51;53.29;101459.13;5118945;27;45544;-69
2024/01/12 10:34:12;;;;;;;;;14.25;11.50;;;;;10.58;53.35;101455.06;5119107;27;45437;-69
2024/01/12 10:36:39;;;;;;;;;11.75;11.25;;;;;10.61;52.91;101449.97;5117297;27;45595;-69
2024/01/12 10:39:11;;;;;;;;;9.75;9.00;;;;;10.67;54.03;101458.09;5118389;27;45355;-69
2024/01/12 10:41:40;;;;;;;;;22.75;22.75;;;;;10.64;53.99;101461.44;5117204;27;45368;-69
2024/01/12 10:44:06;;;;;;;;;31.75;28.00;;;;;10.77;54.97;101462.00;5118746;27;45385;-69
2024/01/12 10:46:43;;;;;;;;;23.00;21.25;;;;;10.86;53.50;101463.31;5118346;27;46067;-69
2024/01/12 10:49:13;;;;;;;;;20.75;18.50;;;;;10.84;53.54;101469.25;5118843;27;45270;-69
2024/01/12 10:51:43;;;;;;;;;16.50;16.00;;;;;10.85;54.22;101458.88;5118637;27;45417;-69
2024/01/12 10:54:15;;;;;;;;;15.75;12.75;;;;;10.98;54.01;101462.03;5118856;27;45425;-68
2024/01/12 10:56:42;;;;;;;;;17.25;16.50;;;;;10.78;54.45;101420.22;5118502;27;46447;-69
2024/01/12 10:59:08;;;;;;;;;17.50;15.25;;;;;11.08;54.23;101466.81;5118089;27;45462;-69
2024/01/12 11:01:35;;;;;;;;;20.75;17.00;;;;;11.18;54.62;101470.72;5118281;27;45538;-69
2024/01/12 11:04:02;;;;;;;;;18.75;16.50;;;;;11.11;53.18;101443.41;5118375;27;45466;-69
2024/01/12 11:06:29;;;;;;;;;11.00;10.50;;;;;11.27;53.94;101460.66;5117961;27;45941;-68
2024/01/12 11:08:56;;;;;;;;;13.25;12.75;;;;;11.05;52.43;101437.94;5117898;27;45504;-68
2024/01/12 11:11:29;;;;;;;;;15.75;14.50;;;;;11.19;53.54;101456.81;5118122;27;45401;-68